Birkbeck, Illinois
Current Conditions -  °F | °C
As of 1:35 PM on Tuesday 21 Oct 2014 (Local Time) from KAAA Reporting Station
Clear Clear  
Wind Chill: 16°   Ceiling: Unl
Heat Index: 16°   Visibility: 10mi
Dew Point:   Wind: 13mph
Humidity: 47%   Direction: 20°NNE
Pressure: 30.13"   Gusts: 16mph
Location:  40.143°N, 88.9637°W
Report Text: KAAA 211835Z AUTO 02011G14KT 10SM CLR 16/05 A3013 RMK AO2 T01610049
Loading
Personal Weather Stations






























Interactive Weather Map
Tropical Storm Tracking
New forecast layout! Learn more

10-Day Weather Forecast

Advertisements
Track Severe Weather on mobile